Indian Creek, Colorado
Current Conditions -  °F | °C
As of 3:31 AM on Sunday 26 Oct 2014 (Local Time) from KVTP Reporting Station
Clear Clear  
Wind Chill: 38°   Ceiling: Unl
Heat Index: 45°   Visibility: 10mi
Dew Point: 28°   Wind: 15mph
Humidity: 53%   Direction: 220°SW
Pressure: 30.23"   Gusts: 29mph
Location:  37.5011°N, 105.046°W
Report Text: KVTP 260931Z AUTO 22013G25KT 180V280 10SM CLR 07/M02 A3023 RMK AO2
Loading
Personal Weather Stations






























Interactive Weather Map
Tropical Storm Tracking
New forecast layout! Learn more

10-Day Weather Forecast

Advertisements
Track Severe Weather on mobile